Time;durP1;ratioP1;P1;durP2;ratioP2;P2;SDS_P1;SDS_P2;PMS_P1;PMS_P2;Temp;Humidity;BMP_temperature;BMP_pressure;BME280_temperature;BME280_humidity;BME280_pressure;Samples;Min_cycle;Max_cycle;Signal;HPM_P1;HPM_P2
2022/03/29 00:00:30;;;;;;;8.30;4.85;;;4.90;82.00;;;;;;2088376;28;20193;-67
2022/03/29 00:01:31;;;;;;;7.97;4.22;;;4.90;82.10;;;;;;2087926;28;20186;-67
2022/03/29 00:02:32;;;;;;;6.43;4.10;;;4.90;82.40;;;;;;2088878;28;20191;-67
2022/03/29 00:03:33;;;;;;;6.90;4.20;;;4.90;82.10;;;;;;2089118;28;20231;-67
2022/03/29 00:04:33;;;;;;;5.50;4.13;;;4.90;81.80;;;;;;2088872;28;20185;-67
2022/03/29 00:05:36;;;;;;;7.00;4.03;;;4.90;81.90;;;;;;2088991;28;20181;-67
2022/03/29 00:06:36;;;;;;;6.97;3.92;;;4.80;82.00;;;;;;2089048;28;20211;-66
2022/03/29 00:07:37;;;;;;;5.73;4.27;;;4.80;82.10;;;;;;2089190;28;20174;-66
2022/03/29 00:08:38;;;;;;;5.77;4.00;;;4.80;82.50;;;;;;2089094;28;20692;-67
2022/03/29 00:09:38;;;;;;;9.97;4.47;;;4.80;82.40;;;;;;2089048;28;20224;-67
2022/03/29 00:10:39;;;;;;;6.53;4.23;;;4.80;82.00;;;;;;2088718;28;20232;-67
2022/03/29 00:11:39;;;;;;;6.40;4.63;;;4.80;82.10;;;;;;2087712;28;20186;-67
2022/03/29 00:12:40;;;;;;;7.07;3.60;;;4.90;81.80;;;;;;2080246;28;20188;-67
2022/03/29 00:13:41;;;;;;;6.50;4.13;;;4.80;82.00;;;;;;2088117;28;20782;-67
2022/03/29 00:14:41;;;;;;;7.63;4.30;;;4.80;82.20;;;;;;2088681;28;20189;-67
2022/03/29 00:15:42;;;;;;;7.83;3.87;;;4.80;82.30;;;;;;2088657;28;20221;-67
2022/03/29 00:16:43;;;;;;;6.80;4.47;;;4.80;82.20;;;;;;2088652;28;20267;-67
2022/03/29 00:17:44;;;;;;;6.35;4.15;;;4.80;82.30;;;;;;2087991;28;20194;-67
2022/03/29 00:18:45;;;;;;;8.53;4.93;;;4.80;82.60;;;;;;2088051;28;20195;-67
2022/03/29 00:19:45;;;;;;;6.30;3.93;;;4.80;83.00;;;;;;2088693;28;20748;-67
2022/03/29 00:20:46;;;;;;;7.33;4.23;;;4.80;83.00;;;;;;2088652;28;20236;-67
2022/03/29 00:21:46;;;;;;;6.70;3.93;;;4.80;83.00;;;;;;2088247;28;20672;-67
2022/03/29 00:22:47;;;;;;;9.53;4.50;;;4.80;83.30;;;;;;2088071;28;20620;-67
2022/03/29 00:23:48;;;;;;;6.87;3.93;;;4.80;83.50;;;;;;2088239;28;20180;-67
2022/03/29 00:24:49;;;;;;;6.77;4.30;;;4.80;83.80;;;;;;2088647;28;20197;-67
2022/03/29 00:25:49;;;;;;;6.83;4.57;;;4.80;83.90;;;;;;2088973;28;20181;-67
2022/03/29 00:26:50;;;;;;;7.53;4.33;;;4.70;84.10;;;;;;2087913;28;20281;-67
2022/03/29 00:27:50;;;;;;;5.53;3.97;;;4.70;84.40;;;;;;2088148;28;20196;-67
2022/03/29 00:28:52;;;;;;;7.23;4.23;;;4.70;84.70;;;;;;2088715;28;20750;-67
2022/03/29 00:29:53;;;;;;;7.32;3.95;;;4.70;84.80;;;;;;2088531;28;20183;-67
2022/03/29 00:30:53;;;;;;;7.68;4.05;;;4.70;84.80;;;;;;2088591;28;20567;-67
2022/03/29 00:31:54;;;;;;;5.67;3.93;;;4.70;85.00;;;;;;2088181;28;20191;-67
2022/03/29 00:32:55;;;;;;;6.87;4.03;;;4.70;86.40;;;;;;2088537;28;20177;-67
2022/03/29 00:33:56;;;;;;;6.00;3.58;;;4.70;85.10;;;;;;2088585;28;20684;-67
2022/03/29 00:34:57;;;;;;;8.70;4.57;;;4.70;84.80;;;;;;2088675;28;20236;-67
2022/03/29 00:35:57;;;;;;;8.50;4.40;;;4.70;84.10;;;;;;2088606;28;20801;-67
2022/03/29 00:36:58;;;;;;;7.70;4.73;;;4.70;83.50;;;;;;2088612;28;20612;-67
2022/03/29 00:37:59;;;;;;;6.10;4.30;;;4.80;83.80;;;;;;2088494;28;20174;-67
2022/03/29 00:39:00;;;;;;;6.63;4.40;;;4.80;83.70;;;;;;2087956;28;20195;-67
2022/03/29 00:40:01;;;;;;;12.30;4.28;;;4.80;84.00;;;;;;2087677;28;20300;-67
2022/03/29 00:41:02;;;;;;;6.47;4.32;;;4.80;84.30;;;;;;2088291;28;20692;-67
2022/03/29 00:42:04;;;;;;;7.47;4.30;;;4.80;84.60;;;;;;2087519;28;20189;-67
2022/03/29 00:43:08;;;;;;;5.88;4.30;;;4.70;85.30;;;;;;2088083;28;20189;-67
2022/03/29 00:44:09;;;;;;;6.10;3.97;;;4.70;85.70;;;;;;2088476;28;20189;-67
2022/03/29 00:45:11;;;;;;;10.03;4.30;;;4.70;86.00;;;;;;2088825;28;20192;-68
2022/03/29 00:46:12;;;;;;;7.22;4.03;;;4.60;86.10;;;;;;2088267;28;20315;-67
2022/03/29 00:47:12;;;;;;;6.83;4.13;;;4.70;86.50;;;;;;2088719;28;20181;-67
2022/03/29 00:48:14;;;;;;;5.60;4.20;;;4.70;86.50;;;;;;2088605;28;20173;-67
2022/03/29 00:49:14;;;;;;;5.22;3.80;;;4.70;86.30;;;;;;2088750;28;20230;-68
2022/03/29 00:50:15;;;;;;;6.33;4.23;;;4.60;86.30;;;;;;2088596;28;20241;-67
2022/03/29 00:51:16;;;;;;;9.67;4.60;;;4.60;86.40;;;;;;2087558;28;20202;-67
2022/03/29 00:52:17;;;;;;;6.60;4.20;;;4.70;86.20;;;;;;2087930;28;20913;-68
2022/03/29 00:53:19;;;;;;;7.47;4.43;;;4.70;86.10;;;;;;2088041;28;20194;-67
2022/03/29 00:54:19;;;;;;;7.40;4.20;;;4.60;86.10;;;;;;2079614;28;20568;-67
2022/03/29 00:55:20;;;;;;;5.53;3.97;;;4.70;86.30;;;;;;2087939;28;20227;-67
2022/03/29 00:56:21;;;;;;;5.80;4.07;;;4.70;86.50;;;;;;2088436;28;20193;-67
2022/03/29 00:57:22;;;;;;;7.33;4.20;;;4.70;86.50;;;;;;2087994;28;20615;-67
2022/03/29 00:58:22;;;;;;;8.00;3.88;;;4.70;85.50;;;;;;2087852;28;20195;-67
2022/03/29 00:59:24;;;;;;;8.60;4.80;;;4.80;85.40;;;;;;2088677;28;20209;-67
2022/03/29 01:00:25;;;;;;;7.88;4.15;;;4.80;85.40;;;;;;2088480;28;20238;-67
2022/03/29 01:01:26;;;;;;;7.83;4.30;;;4.80;85.30;;;;;;2088031;28;20645;-67
2022/03/29 01:02:26;;;;;;;7.60;4.40;;;4.80;85.30;;;;;;2088398;28;20704;-67
2022/03/29 01:03:28;;;;;;;8.77;4.27;;;4.80;85.40;;;;;;2088318;28;20556;-68
2022/03/29 01:04:29;;;;;;;9.25;4.82;;;4.70;85.90;;;;;;2088414;28;20541;-67
2022/03/29 01:05:31;;;;;;;7.23;4.13;;;4.70;86.00;;;;;;2088648;28;20320;-67
2022/03/29 01:06:31;;;;;;;6.43;4.15;;;4.80;86.10;;;;;;2088393;28;20631;-67
2022/03/29 01:07:32;;;;;;;6.43;4.30;;;4.80;85.60;;;;;;2088000;28;20185;-67
2022/03/29 01:08:34;;;;;;;6.73;4.27;;;4.80;85.60;;;;;;2087888;28;20185;-68
2022/03/29 01:09:34;;;;;;;7.20;4.32;;;4.70;85.70;;;;;;2088633;28;20270;-67
2022/03/29 01:10:35;;;;;;;6.87;4.40;;;4.70;85.80;;;;;;2088504;28;20649;-67
2022/03/29 01:11:36;;;;;;;6.90;4.50;;;4.80;85.70;;;;;;2087967;28;20221;-67
2022/03/29 01:12:37;;;;;;;7.70;4.53;;;4.70;85.50;;;;;;2087865;28;20186;-67
2022/03/29 01:13:41;;;;;;;6.50;4.40;;;4.70;85.20;;;;;;2079870;28;20248;-67
2022/03/29 01:14:42;;;;;;;8.27;4.22;;;4.70;85.00;;;;;;2079955;28;20660;-67
2022/03/29 01:15:44;;;;;;;6.25;3.80;;;4.70;85.10;;;;;;2079693;28;20275;-67
2022/03/29 01:18:05;;;;;;;9.18;5.68;;;4.70;85.00;;;;;;2082291;28;20187;-67
2022/03/29 01:19:11;;;;;;;5.22;4.00;;;4.70;85.20;;;;;;2087974;28;20309;-67
2022/03/29 01:20:25;;;;;;;5.82;4.53;;;4.70;85.60;;;;;;2088192;28;20884;-67
2022/03/29 01:21:32;;;;;;;4.57;3.67;;;4.70;86.10;;;;;;2087097;28;20627;-67
2022/03/29 01:22:33;;;;;;;7.30;4.53;;;4.70;86.50;;;;;;2080497;28;20203;-67
2022/03/29 01:23:37;;;;;;;8.07;5.00;;;4.70;86.40;;;;;;2087214;28;20188;-67
2022/03/29 01:24:42;;;;;;;7.30;4.45;;;4.70;85.90;;;;;;2087846;28;20269;-67
2022/03/29 01:25:44;;;;;;;6.93;4.22;;;4.70;86.10;;;;;;2087938;28;20162;-67
2022/03/29 01:26:46;;;;;;;5.72;3.80;;;4.70;86.00;;;;;;2087780;28;20182;-67
2022/03/29 01:27:50;;;;;;;7.32;4.30;;;4.70;86.10;;;;;;2079424;28;20338;-67
2022/03/29 01:28:50;;;;;;;7.28;4.68;;;4.70;86.10;;;;;;2087800;28;20276;-68
2022/03/29 01:29:57;;;;;;;5.87;4.03;;;4.70;86.50;;;;;;2087651;28;20195;-67
2022/03/29 01:30:57;;;;;;;5.72;3.90;;;4.70;86.50;;;;;;2087843;28;20200;-67
2022/03/29 01:32:02;;;;;;;8.53;5.00;;;4.70;86.70;;;;;;2087104;28;20749;-67
2022/03/29 01:33:07;;;;;;;7.38;4.53;;;4.70;86.90;;;;;;2079638;28;20275;-67
2022/03/29 01:34:08;;;;;;;6.88;4.28;;;4.70;87.30;;;;;;2087776;28;20258;-67
2022/03/29 01:35:09;;;;;;;7.65;4.28;;;4.70;87.20;;;;;;2087926;28;20202;-67
2022/03/29 01:36:10;;;;;;;6.47;4.17;;;4.70;86.80;;;;;;2079819;28;20185;-67
2022/03/29 01:37:11;;;;;;;8.57;4.10;;;4.70;85.50;;;;;;2089288;28;20186;-67
2022/03/29 01:38:12;;;;;;;6.53;4.03;;;4.70;85.50;;;;;;2089821;28;20687;-67
2022/03/29 01:39:12;;;;;;;10.37;4.77;;;4.70;85.50;;;;;;2089197;28;20206;-67
2022/03/29 01:40:19;;;;;;;5.83;3.70;;;4.80;85.80;;;;;;2089232;28;20188;-67
2022/03/29 01:41:20;;;;;;;6.43;4.30;;;4.70;84.90;;;;;;2089375;28;20600;-68
2022/03/29 01:42:21;;;;;;;7.43;4.20;;;4.70;84.80;;;;;;2089839;28;20185;-67
2022/03/29 01:43:21;;;;;;;7.73;4.20;;;4.80;84.60;;;;;;2089867;28;20658;-67
2022/03/29 01:44:22;;;;;;;6.33;3.93;;;4.80;84.60;;;;;;2089889;28;20576;-67
2022/03/29 01:45:27;;;;;;;6.10;3.90;;;4.80;84.40;;;;;;2088456;28;20276;-67
2022/03/29 01:46:27;;;;;;;6.10;4.43;;;4.80;84.70;;;;;;2081016;28;20190;-67
2022/03/29 01:47:28;;;;;;;8.83;4.93;;;4.80;84.80;;;;;;2089521;28;20198;-67
2022/03/29 01:48:29;;;;;;;9.43;5.27;;;4.80;85.10;;;;;;2089934;28;20181;-67
2022/03/29 01:49:31;;;;;;;9.33;5.17;;;4.80;85.20;;;;;;2090048;28;20193;-67
2022/03/29 01:50:32;;;;;;;14.05;5.30;;;4.80;84.80;;;;;;2089763;28;21033;-67
2022/03/29 01:51:33;;;;;;;6.10;4.60;;;4.80;84.90;;;;;;2089468;28;20193;-67
2022/03/29 01:52:42;;;;;;;7.32;4.68;;;4.80;84.80;;;;;;2089782;28;20443;-67
2022/03/29 01:53:47;;;;;;;7.55;5.00;;;4.80;84.80;;;;;;2088983;28;20187;-67
2022/03/29 01:54:48;;;;;;;7.88;4.80;;;4.80;84.80;;;;;;2089153;28;20871;-67
2022/03/29 01:55:49;;;;;;;5.47;3.97;;;4.80;84.60;;;;;;2089472;28;20201;-67
2022/03/29 01:56:50;;;;;;;9.73;5.07;;;4.80;84.30;;;;;;2080836;28;20555;-67
2022/03/29 01:57:51;;;;;;;7.30;4.33;;;4.90;84.60;;;;;;2081186;28;20186;-66
2022/03/29 01:58:51;;;;;;;7.45;4.97;;;4.90;84.60;;;;;;2089747;28;20648;-67
2022/03/29 02:01:12;;;;;;;7.32;4.30;;;4.90;85.40;;;;;;2088730;28;20406;-67
2022/03/29 02:02:13;;;;;;;9.23;4.85;;;4.90;85.40;;;;;;2089567;28;20534;-67
2022/03/29 02:03:13;;;;;;;6.73;4.20;;;4.80;85.80;;;;;;2089768;28;20236;-66
2022/03/29 02:04:16;;;;;;;7.53;4.60;;;4.80;86.00;;;;;;2089751;28;20186;-67
2022/03/29 02:05:18;;;;;;;6.38;4.47;;;4.80;86.20;;;;;;2089435;28;20197;-67
2022/03/29 02:06:19;;;;;;;6.55;4.60;;;4.80;86.40;;;;;;2089120;28;20234;-66
2022/03/29 02:07:20;;;;;;;8.77;4.27;;;4.90;86.40;;;;;;2089055;28;20188;-66
2022/03/29 02:08:21;;;;;;;5.85;4.13;;;4.90;86.00;;;;;;2089893;28;20219;-66
2022/03/29 02:09:21;;;;;;;6.30;3.90;;;4.80;85.70;;;;;;2089035;28;20194;-67
2022/03/29 02:10:22;;;;;;;6.47;3.93;;;4.80;85.80;;;;;;2088985;28;20190;-67
2022/03/29 02:11:23;;;;;;;6.13;4.10;;;4.90;85.80;;;;;;2088860;28;20190;-67
2022/03/29 02:12:24;;;;;;;5.97;4.30;;;4.90;85.90;;;;;;2089709;28;20239;-66
2022/03/29 02:13:25;;;;;;;6.70;4.17;;;4.90;86.10;;;;;;2089521;28;20186;-66
2022/03/29 02:14:26;;;;;;;6.72;4.38;;;4.90;86.10;;;;;;2089565;28;20254;-67
2022/03/29 02:15:27;;;;;;;6.47;4.37;;;4.90;86.40;;;;;;2088990;28;20296;-67
2022/03/29 02:16:28;;;;;;;7.25;4.20;;;4.90;86.30;;;;;;2088911;28;20192;-66
2022/03/29 02:17:29;;;;;;;6.90;4.40;;;4.90;86.30;;;;;;2089306;28;20250;-67
2022/03/29 02:18:29;;;;;;;6.67;4.20;;;4.90;86.60;;;;;;2089689;28;20185;-67
2022/03/29 02:19:30;;;;;;;6.87;4.40;;;4.90;86.60;;;;;;2089258;28;20229;-66
2022/03/29 02:20:31;;;;;;;7.20;4.13;;;4.80;87.00;;;;;;2089688;28;20172;-67
2022/03/29 02:21:33;;;;;;;7.60;4.18;;;4.80;87.20;;;;;;2088914;28;20177;-67
2022/03/29 02:22:34;;;;;;;6.28;4.20;;;4.80;87.50;;;;;;2089555;28;20200;-67
2022/03/29 02:23:34;;;;;;;6.97;4.30;;;4.80;87.50;;;;;;2089523;28;20182;-66
2022/03/29 02:24:35;;;;;;;7.17;4.37;;;4.90;87.40;;;;;;2089680;28;20539;-67
2022/03/29 02:25:36;;;;;;;6.53;4.20;;;4.80;87.70;;;;;;2089524;28;20232;-66
2022/03/29 02:26:37;;;;;;;7.27;4.20;;;4.80;87.60;;;;;;2089663;28;20179;-67
2022/03/29 02:27:43;;;;;;;8.83;4.37;;;4.80;87.70;;;;;;2089450;28;20178;-67
2022/03/29 02:28:44;;;;;;;6.43;4.25;;;4.80;87.20;;;;;;2088963;28;20202;-67
2022/03/29 02:29:45;;;;;;;5.53;4.30;;;4.90;87.30;;;;;;2088820;28;20584;-66
2022/03/29 02:30:46;;;;;;;6.17;4.60;;;4.80;87.20;;;;;;2088894;28;20220;-66
2022/03/29 02:31:46;;;;;;;7.32;4.30;;;4.90;87.00;;;;;;2088877;28;20189;-66
2022/03/29 02:32:47;;;;;;;7.53;4.30;;;4.90;86.90;;;;;;2089522;28;20205;-67
2022/03/29 02:33:47;;;;;;;5.73;3.70;;;4.90;86.30;;;;;;2089087;28;20565;-67
2022/03/29 02:34:48;;;;;;;7.10;4.13;;;4.90;86.60;;;;;;2089538;28;20206;-66
2022/03/29 02:35:49;;;;;;;6.33;4.53;;;4.90;87.30;;;;;;2089416;28;20205;-66
2022/03/29 02:36:50;;;;;;;7.53;4.70;;;4.80;87.60;;;;;;2089254;28;20208;-66
2022/03/29 02:37:51;;;;;;;5.40;3.85;;;4.80;87.90;;;;;;2089341;28;20194;-67
2022/03/29 02:38:52;;;;;;;6.57;3.80;;;4.80;88.00;;;;;;2089347;28;20649;-66
2022/03/29 02:39:52;;;;;;;6.37;4.20;;;4.80;88.00;;;;;;2089355;28;20211;-66
2022/03/29 02:40:58;;;;;;;5.63;3.90;;;4.80;88.00;;;;;;2089256;28;20184;-67
2022/03/29 02:41:59;;;;;;;7.05;3.85;;;4.80;88.10;;;;;;2088769;28;20166;-66
2022/03/29 02:43:00;;;;;;;6.30;4.47;;;4.80;88.10;;;;;;2089210;28;20187;-66
2022/03/29 02:44:00;;;;;;;6.32;4.15;;;4.80;88.00;;;;;;2089345;28;20196;-66
2022/03/29 02:45:01;;;;;;;7.60;4.73;;;4.80;87.70;;;;;;2089351;28;20401;-67
2022/03/29 02:46:03;;;;;;;5.07;4.00;;;4.80;87.80;;;;;;2089485;28;20243;-67
2022/03/29 02:47:04;;;;;;;10.20;4.68;;;4.80;87.50;;;;;;2089206;28;20214;-67
2022/03/29 02:48:05;;;;;;;7.20;4.27;;;4.80;87.40;;;;;;2088460;28;20495;-66
2022/03/29 02:49:07;;;;;;;6.43;4.40;;;4.80;87.70;;;;;;2089272;28;20273;-66
2022/03/29 02:50:09;;;;;;;6.50;4.25;;;4.80;88.20;;;;;;2088993;28;20204;-67
2022/03/29 02:51:10;;;;;;;6.88;4.60;;;4.70;88.50;;;;;;2088589;28;20536;-67
2022/03/29 02:52:10;;;;;;;6.53;4.43;;;4.70;88.50;;;;;;2089386;28;20213;-67
2022/03/29 02:53:11;;;;;;;8.17;4.60;;;4.70;88.80;;;;;;2089197;28;20183;-66
2022/03/29 02:54:14;;;;;;;5.47;3.60;;;4.80;90.00;;;;;;2089429;28;20189;-66
2022/03/29 02:55:18;;;;;;;6.68;3.67;;;4.70;90.00;;;;;;2089184;28;20233;-66
2022/03/29 02:56:18;;;;;;;10.35;4.38;;;4.80;88.80;;;;;;2089379;28;20189;-67
2022/03/29 02:57:19;;;;;;;7.23;4.47;;;4.80;88.50;;;;;;2087767;28;20264;-66
2022/03/29 02:58:20;;;;;;;5.13;4.10;;;4.80;88.30;;;;;;2089407;28;20216;-67
2022/03/29 02:59:20;;;;;;;5.43;4.13;;;4.80;88.20;;;;;;2089246;28;20209;-66
2022/03/29 03:00:21;;;;;;;6.93;4.20;;;4.80;88.00;;;;;;2089257;28;20177;-66
2022/03/29 03:01:22;;;;;;;8.60;4.43;;;4.80;87.90;;;;;;2087899;28;20635;-67
2022/03/29 03:02:22;;;;;;;7.57;4.27;;;4.80;88.30;;;;;;2088610;28;20169;-66
2022/03/29 03:03:23;;;;;;;7.70;4.17;;;4.80;88.60;;;;;;2089198;28;20190;-67
2022/03/29 03:04:24;;;;;;;7.03;4.10;;;4.80;88.30;;;;;;2089285;28;20183;-67
2022/03/29 03:05:25;;;;;;;5.17;4.10;;;4.80;88.10;;;;;;2089032;28;20210;-67
2022/03/29 03:06:26;;;;;;;6.73;4.60;;;4.80;87.60;;;;;;2088376;28;20176;-67
2022/03/29 03:07:27;;;;;;;7.03;4.67;;;4.90;87.50;;;;;;2088376;28;20272;-67
2022/03/29 03:08:27;;;;;;;6.22;4.57;;;4.90;87.20;;;;;;2088730;28;20258;-67
2022/03/29 03:09:28;;;;;;;7.30;4.43;;;4.80;87.50;;;;;;2088636;28;20202;-67
2022/03/29 03:10:29;;;;;;;5.43;4.07;;;4.90;87.20;;;;;;2089496;28;20198;-67
2022/03/29 03:11:30;;;;;;;5.82;4.10;;;4.90;87.10;;;;;;2088575;28;21004;-67
2022/03/29 03:12:39;;;;;;;6.17;4.43;;;4.80;87.10;;;;;;2088635;28;20217;-67
2022/03/29 03:13:40;;;;;;;11.45;4.88;;;4.80;87.20;;;;;;2081320;28;20165;-67
2022/03/29 03:14:41;;;;;;;9.23;3.90;;;4.80;87.50;;;;;;2088496;28;20721;-67
2022/03/29 03:15:42;;;;;;;7.33;4.53;;;4.80;87.40;;;;;;2089025;28;20181;-66
2022/03/29 03:16:43;;;;;;;6.37;4.30;;;4.80;87.40;;;;;;2089239;28;20196;-66
2022/03/29 03:17:44;;;;;;;8.27;4.75;;;4.80;87.50;;;;;;2088606;28;20180;-67
2022/03/29 03:18:45;;;;;;;7.90;4.23;;;4.80;87.50;;;;;;2088455;28;20778;-67
2022/03/29 03:19:46;;;;;;;7.23;4.40;;;4.80;87.30;;;;;;2080022;28;20221;-67
2022/03/29 03:20:46;;;;;;;6.47;4.17;;;4.80;87.30;;;;;;2088201;28;20276;-67
2022/03/29 03:21:47;;;;;;;5.63;4.10;;;4.80;87.40;;;;;;2087810;28;20236;-67
2022/03/29 03:22:50;;;;;;;12.20;5.13;;;4.80;87.60;;;;;;2088514;28;20177;-67
2022/03/29 03:23:51;;;;;;;6.25;4.07;;;4.80;87.60;;;;;;2089030;28;20234;-67
2022/03/29 03:24:51;;;;;;;7.00;4.73;;;4.90;86.80;;;;;;2089163;28;20590;-67
2022/03/29 03:25:52;;;;;;;7.47;4.37;;;4.90;86.10;;;;;;2089234;28;20169;-67
2022/03/29 03:26:53;;;;;;;6.97;4.03;;;4.90;86.50;;;;;;2088957;28;20181;-68
2022/03/29 03:27:54;;;;;;;6.40;4.77;;;4.90;86.60;;;;;;2089068;28;20179;-67
2022/03/29 03:28:54;;;;;;;7.70;4.73;;;5.00;86.60;;;;;;2088335;28;20181;-67
2022/03/29 03:29:55;;;;;;;7.00;4.03;;;4.90;86.60;;;;;;2088431;28;20420;-67
2022/03/29 03:30:56;;;;;;;6.40;4.47;;;4.90;86.60;;;;;;2089068;28;20182;-67
2022/03/29 03:31:56;;;;;;;6.53;4.10;;;4.90;86.50;;;;;;2088704;28;20193;-67
2022/03/29 03:32:57;;;;;;;8.47;4.43;;;4.90;86.60;;;;;;2088963;28;20671;-67
2022/03/29 03:33:58;;;;;;;5.60;4.33;;;4.90;86.50;;;;;;2089010;28;20669;-68
2022/03/29 03:34:58;;;;;;;6.67;4.30;;;4.90;86.60;;;;;;2088515;28;20674;-67
2022/03/29 03:35:59;;;;;;;8.10;4.30;;;4.90;86.70;;;;;;2089231;28;20534;-67
2022/03/29 03:37:02;;;;;;;5.70;4.17;;;4.90;86.50;;;;;;2089138;28;20173;-67
2022/03/29 03:38:04;;;;;;;7.18;4.18;;;5.00;86.60;;;;;;2089168;28;20190;-67
2022/03/29 03:39:05;;;;;;;5.25;4.07;;;5.00;86.90;;;;;;2088693;28;20186;-67
2022/03/29 03:40:09;;;;;;;5.90;4.37;;;5.00;86.70;;;;;;2088329;28;20174;-67
2022/03/29 03:41:10;;;;;;;6.32;4.07;;;5.00;87.20;;;;;;2079942;28;20214;-67
2022/03/29 03:42:11;;;;;;;5.77;4.17;;;5.00;86.80;;;;;;2088345;28;20767;-67
2022/03/29 03:43:11;;;;;;;6.67;4.03;;;5.00;86.80;;;;;;2088882;28;20617;-67
2022/03/29 03:44:12;;;;;;;6.67;4.17;;;5.10;85.90;;;;;;2088988;28;20193;-67
2022/03/29 03:45:13;;;;;;;7.03;4.47;;;5.10;86.30;;;;;;2088614;28;20257;-67
2022/03/29 03:46:14;;;;;;;6.73;4.30;;;5.10;86.40;;;;;;2089003;28;20187;-67
2022/03/29 03:47:14;;;;;;;6.20;4.17;;;5.10;86.00;;;;;;2088872;28;20187;-67
2022/03/29 03:48:15;;;;;;;6.27;4.20;;;5.10;85.30;;;;;;2088954;28;20177;-67
2022/03/29 03:49:16;;;;;;;6.53;4.43;;;5.20;85.50;;;;;;2087819;28;20186;-67
2022/03/29 03:50:16;;;;;;;6.13;3.93;;;5.10;85.80;;;;;;2088253;28;20180;-66
2022/03/29 03:51:17;;;;;;;6.90;4.43;;;5.10;86.10;;;;;;2088227;28;20184;-67
2022/03/29 03:52:18;;;;;;;8.77;4.40;;;5.10;85.20;;;;;;2088882;28;20194;-67
2022/03/29 03:53:18;;;;;;;7.67;4.63;;;5.10;85.70;;;;;;2088140;28;20174;-67
2022/03/29 03:54:20;;;;;;;5.93;4.30;;;5.10;85.80;;;;;;2088108;28;20233;-66
2022/03/29 03:55:22;;;;;;;8.30;4.25;;;5.10;86.20;;;;;;2079476;28;20194;-67
2022/03/29 03:56:22;;;;;;;6.45;4.22;;;5.10;86.20;;;;;;2080197;28;20194;-67
2022/03/29 03:57:23;;;;;;;6.87;4.37;;;5.10;86.70;;;;;;2088637;28;20652;-67
2022/03/29 03:58:24;;;;;;;7.43;5.07;;;5.10;86.50;;;;;;2088849;28;20209;-67
2022/03/29 03:59:24;;;;;;;6.67;4.10;;;5.10;86.00;;;;;;2088328;28;20629;-67
2022/03/29 04:00:25;;;;;;;6.33;4.33;;;5.10;85.80;;;;;;2088877;28;20671;-67
2022/03/29 04:01:26;;;;;;;7.63;4.63;;;5.10;86.60;;;;;;2087989;28;20586;-67
2022/03/29 04:02:27;;;;;;;8.63;4.68;;;5.10;87.00;;;;;;2088846;28;20191;-67
2022/03/29 04:03:28;;;;;;;7.33;4.00;;;5.00;87.30;;;;;;2088365;28;20193;-67
2022/03/29 04:04:29;;;;;;;6.13;4.33;;;5.00;87.50;;;;;;2088122;28;20236;-67
2022/03/29 04:05:30;;;;;;;7.13;3.90;;;4.90;87.60;;;;;;2080049;28;20193;-66
2022/03/29 04:06:30;;;;;;;6.27;3.87;;;4.90;87.80;;;;;;2087959;28;20205;-66
2022/03/29 04:07:31;;;;;;;7.67;4.33;;;4.80;88.10;;;;;;2088751;28;20649;-67
2022/03/29 04:08:32;;;;;;;8.07;5.77;;;4.90;88.10;;;;;;2088725;28;20731;-67
2022/03/29 04:09:35;;;;;;;5.80;4.47;;;4.90;87.10;;;;;;2088805;28;20192;-67
2022/03/29 04:10:36;;;;;;;7.82;4.78;;;4.90;87.00;;;;;;2088737;28;20204;-67
2022/03/29 04:11:36;;;;;;;5.90;4.07;;;5.00;86.90;;;;;;2088114;28;20191;-67
2022/03/29 04:12:37;;;;;;;8.07;4.83;;;5.00;86.60;;;;;;2088671;28;20188;-67
2022/03/29 04:13:38;;;;;;;7.03;4.13;;;5.00;86.40;;;;;;2088857;28;20189;-67
2022/03/29 04:14:39;;;;;;;7.53;4.73;;;5.00;85.50;;;;;;2087741;28;20191;-67
2022/03/29 04:15:39;;;;;;;7.35;4.55;;;5.00;84.90;;;;;;2088324;28;20603;-67
2022/03/29 04:16:40;;;;;;;7.50;5.60;;;5.00;85.50;;;;;;2088651;28;20236;-67
2022/03/29 04:17:41;;;;;;;8.98;5.00;;;5.00;85.50;;;;;;2088684;28;20586;-67
2022/03/29 04:18:42;;;;;;;7.37;5.33;;;5.00;85.40;;;;;;2088628;28;20292;-67
2022/03/29 04:19:42;;;;;;;8.10;5.40;;;5.00;85.30;;;;;;2088714;28;20209;-67
2022/03/29 04:20:44;;;;;;;6.80;4.60;;;5.00;85.40;;;;;;2088855;28;20548;-67
2022/03/29 04:21:44;;;;;;;7.10;5.00;;;5.00;85.20;;;;;;2088113;28;20552;-67
2022/03/29 04:22:45;;;;;;;8.07;5.40;;;5.10;84.50;;;;;;2088455;28;20181;-67
2022/03/29 04:23:46;;;;;;;7.33;4.83;;;5.10;84.20;;;;;;2088706;28;20178;-67
2022/03/29 04:24:47;;;;;;;7.77;4.97;;;5.10;84.00;;;;;;2088482;28;20267;-67
2022/03/29 04:25:48;;;;;;;7.13;5.20;;;5.10;83.60;;;;;;2088659;28;20935;-67
2022/03/29 04:26:49;;;;;;;8.30;4.53;;;5.10;83.20;;;;;;2088524;28;20194;-67
2022/03/29 04:27:49;;;;;;;8.70;5.13;;;5.10;82.90;;;;;;2088994;28;20197;-68
2022/03/29 04:28:50;;;;;;;7.77;4.60;;;5.20;81.00;;;;;;2088944;28;20178;-67
2022/03/29 04:29:51;;;;;;;7.83;4.53;;;5.30;81.50;;;;;;2088561;28;20571;-67
2022/03/29 04:30:55;;;;;;;10.03;5.17;;;5.30;80.90;;;;;;2088544;28;20557;-67
2022/03/29 04:31:56;;;;;;;7.53;4.97;;;5.40;81.50;;;;;;2088202;28;20273;-67
2022/03/29 04:32:56;;;;;;;8.77;5.30;;;5.40;81.10;;;;;;2088483;28;20677;-67
2022/03/29 04:34:01;;;;;;;7.20;4.87;;;5.40;81.10;;;;;;2088301;28;20193;-67
2022/03/29 04:35:02;;;;;;;6.40;4.40;;;5.40;80.10;;;;;;2088412;28;20561;-67
2022/03/29 04:36:04;;;;;;;9.35;5.20;;;5.40;80.50;;;;;;2088708;28;20192;-67
2022/03/29 04:37:04;;;;;;;7.80;4.75;;;5.40;81.30;;;;;;2088407;28;20186;-67
2022/03/29 04:38:05;;;;;;;9.13;5.40;;;5.40;81.70;;;;;;2088485;28;20294;-67
2022/03/29 04:39:06;;;;;;;6.90;4.80;;;5.40;82.00;;;;;;2088437;28;20182;-67
2022/03/29 04:40:09;;;;;;;8.63;4.80;;;5.30;82.90;;;;;;2088753;28;20261;-67
2022/03/29 04:41:10;;;;;;;6.75;5.20;;;5.20;83.40;;;;;;2087166;28;20255;-66
2022/03/29 04:42:11;;;;;;;6.70;4.80;;;5.20;84.30;;;;;;2088157;28;20203;-67
2022/03/29 04:43:12;;;;;;;8.43;4.67;;;5.20;84.70;;;;;;2088602;28;20200;-67
2022/03/29 04:44:13;;;;;;;9.60;5.30;;;5.20;84.60;;;;;;2088890;28;20180;-67
2022/03/29 04:45:15;;;;;;;7.73;5.27;;;5.20;84.80;;;;;;2088487;28;20206;-68
2022/03/29 04:46:17;;;;;;;7.85;5.05;;;5.10;85.00;;;;;;2087991;28;20277;-67
2022/03/29 04:47:17;;;;;;;6.68;4.88;;;5.10;84.80;;;;;;2088052;28;20204;-67
2022/03/29 04:48:18;;;;;;;8.60;4.60;;;5.10;85.10;;;;;;2088775;28;20189;-67
2022/03/29 04:49:19;;;;;;;7.63;4.90;;;5.10;85.70;;;;;;2088749;28;20190;-67
2022/03/29 04:50:19;;;;;;;7.10;5.13;;;5.10;85.70;;;;;;2088817;28;20242;-67
2022/03/29 04:51:20;;;;;;;7.27;4.90;;;5.10;85.50;;;;;;2088333;28;20181;-66
2022/03/29 04:52:20;;;;;;;7.57;5.00;;;5.10;85.50;;;;;;2088143;28;20674;-66
2022/03/29 04:53:21;;;;;;;7.73;4.77;;;5.10;85.50;;;;;;2088094;28;20188;-67
2022/03/29 04:54:22;;;;;;;7.77;5.23;;;5.10;85.70;;;;;;2088586;28;20220;-70
2022/03/29 04:55:23;;;;;;;7.87;4.87;;;5.00;85.50;;;;;;2088344;28;20201;-67
2022/03/29 04:56:23;;;;;;;8.83;5.50;;;5.10;85.50;;;;;;2088843;28;20275;-66
2022/03/29 04:57:24;;;;;;;7.53;5.07;;;5.00;85.80;;;;;;2088488;28;20939;-67
2022/03/29 04:58:25;;;;;;;8.23;5.10;;;5.00;86.30;;;;;;2087919;28;20311;-66
2022/03/29 04:59:26;;;;;;;8.77;5.78;;;5.00;86.40;;;;;;2088710;28;20291;-66
2022/03/29 05:00:27;;;;;;;10.27;5.88;;;5.00;86.00;;;;;;2088656;28;20182;-67
2022/03/29 05:01:28;;;;;;;9.73;5.88;;;5.00;84.90;;;;;;2088177;28;20206;-66
2022/03/29 05:02:29;;;;;;;8.53;5.80;;;5.10;84.80;;;;;;2088622;28;20257;-66
2022/03/29 05:03:32;;;;;;;10.10;5.27;;;5.10;84.50;;;;;;2088709;28;20251;-66
2022/03/29 05:04:32;;;;;;;8.82;5.40;;;5.00;85.20;;;;;;2088607;28;20502;-66
2022/03/29 05:05:33;;;;;;;8.30;5.30;;;5.00;85.00;;;;;;2088779;28;20179;-66
2022/03/29 05:06:34;;;;;;;7.10;4.93;;;5.00;85.20;;;;;;2087900;28;20182;-66
2022/03/29 05:07:35;;;;;;;7.80;5.10;;;5.00;86.20;;;;;;2088076;28;20608;-66
2022/03/29 05:08:36;;;;;;;6.78;4.85;;;5.10;85.30;;;;;;2088263;28;20180;-66
2022/03/29 05:09:37;;;;;;;9.15;5.45;;;5.10;85.10;;;;;;2088399;28;20180;-66
2022/03/29 05:10:37;;;;;;;9.33;5.63;;;5.00;86.80;;;;;;2088541;28;20596;-66
2022/03/29 05:11:38;;;;;;;7.77;5.20;;;5.00;85.00;;;;;;2089735;28;20214;-67
2022/03/29 05:12:47;;;;;;;9.33;5.50;;;5.00;85.20;;;;;;2090194;28;20194;-67
2022/03/29 05:13:49;;;;;;;8.88;5.45;;;5.10;85.40;;;;;;2089978;28;20179;-66
2022/03/29 05:14:50;;;;;;;11.40;5.22;;;5.00;85.70;;;;;;2089518;28;20736;-66
2022/03/29 05:15:51;;;;;;;9.98;5.18;;;5.00;87.30;;;;;;2090710;28;20264;-66
2022/03/29 05:16:51;;;;;;;7.47;5.10;;;5.00;87.00;;;;;;2090260;28;20192;-67
2022/03/29 05:17:52;;;;;;;8.93;5.37;;;5.00;87.10;;;;;;2089941;28;20190;-66
2022/03/29 05:18:53;;;;;;;9.63;5.40;;;5.00;88.80;;;;;;2090274;28;20182;-66
2022/03/29 05:19:54;;;;;;;8.80;5.17;;;5.00;87.80;;;;;;2090437;28;20474;-66
2022/03/29 05:20:54;;;;;;;8.83;5.17;;;5.10;87.10;;;;;;2090348;28;20175;-66
2022/03/29 05:21:55;;;;;;;13.30;5.77;;;5.10;86.20;;;;;;2089694;28;20265;-66
2022/03/29 05:22:56;;;;;;;11.27;6.80;;;5.10;86.70;;;;;;2090303;28;20179;-66
2022/03/29 05:23:56;;;;;;;8.10;5.77;;;5.10;86.90;;;;;;2090425;28;20186;-66
2022/03/29 05:24:58;;;;;;;9.47;5.83;;;5.00;87.70;;;;;;2090189;28;20199;-66
2022/03/29 05:25:58;;;;;;;13.52;5.03;;;5.00;88.10;;;;;;2090241;28;20293;-67